createdAt,value
2019-03-03T00:00:53.867Z,101494.11
2019-03-03T00:01:55.636Z,101494.20
2019-03-03T00:02:56.580Z,101494.12
2019-03-03T00:03:56.997Z,101494.34
2019-03-03T00:04:57.506Z,101493.89
2019-03-03T00:05:06.035Z,101494.94
2019-03-03T00:06:07.680Z,101494.18
2019-03-03T00:07:08.149Z,101493.84
2019-03-03T00:08:08.520Z,101493.17
2019-03-03T00:09:09.128Z,101492.92
2019-03-03T00:10:09.497Z,101492.08
2019-03-03T00:11:09.882Z,101491.63
2019-03-03T00:12:10.350Z,101491.46
2019-03-03T00:13:10.768Z,101490.76
2019-03-03T00:14:11.192Z,101490.73
2019-03-03T00:15:11.671Z,101490.03
2019-03-03T00:16:12.155Z,101489.59
2019-03-03T00:17:12.773Z,101489.05
2019-03-03T00:18:13.296Z,101488.61
2019-03-03T00:19:13.764Z,101488.50
2019-03-03T00:20:14.367Z,101488.02
2019-03-03T00:21:14.907Z,101487.49
2019-03-03T00:22:15.555Z,101486.62
2019-03-03T00:23:15.988Z,101486.66
2019-03-03T00:24:15.374Z,101486.03
2019-03-03T00:25:16.801Z,101485.67
2019-03-03T00:26:17.252Z,101484.97
2019-03-03T00:27:17.687Z,101484.02
2019-03-03T00:28:18.113Z,101482.78
2019-03-03T00:29:18.568Z,101482.48
2019-03-03T00:30:19.192Z,101481.86
2019-03-03T00:31:19.929Z,101481.45
2019-03-03T00:32:20.510Z,101480.97
2019-03-03T00:33:21.008Z,101480.38
2019-03-03T00:34:21.627Z,101479.74
2019-03-03T00:35:22.086Z,101479.09
2019-03-03T00:36:22.901Z,101478.45
2019-03-03T00:37:23.534Z,101478.14
2019-03-03T00:38:24.359Z,101477.44
2019-03-03T00:39:24.859Z,101476.70
2019-03-03T00:40:25.423Z,101475.67
2019-03-03T00:41:25.908Z,101474.86
2019-03-03T00:42:26.392Z,101473.91
2019-03-03T00:43:27.088Z,101473.45
2019-03-03T00:44:27.542Z,101473.05
2019-03-03T00:45:28.094Z,101472.36
2019-03-03T00:46:28.667Z,101471.32
2019-03-03T00:47:29.161Z,101470.45
2019-03-03T00:47:41.733Z,101461.25
2019-03-03T00:48:42.496Z,101461.03
2019-03-03T00:49:44.036Z,101461.08
2019-03-03T00:50:44.503Z,101460.91
2019-03-03T00:51:45.253Z,101460.91
2019-03-03T00:52:45.873Z,101460.66
2019-03-03T00:53:46.551Z,101459.98
2019-03-03T00:54:47.280Z,101459.31
2019-03-03T00:55:47.992Z,101458.63
2019-03-03T00:56:48.500Z,101457.20
2019-03-03T00:57:48.949Z,101456.69
2019-03-03T00:58:49.417Z,101455.80
2019-03-03T00:59:49.930Z,101455.13
2019-03-03T01:00:51.080Z,101454.45
2019-03-03T01:01:50.350Z,101454.11
2019-03-03T01:02:51.951Z,101453.27
2019-03-03T01:03:52.357Z,101452.25
2019-03-03T01:04:53.114Z,101451.55
2019-03-03T01:05:53.760Z,101451.13
2019-03-03T01:06:54.314Z,101450.70
2019-03-03T01:07:54.841Z,101450.34
2019-03-03T01:08:55.567Z,101449.75
2019-03-03T01:09:56.101Z,101449.22
2019-03-03T01:10:56.519Z,101448.70
2019-03-03T01:11:57.641Z,101448.29
2019-03-03T01:12:57.134Z,101447.95
2019-03-03T01:13:57.699Z,101448.25
2019-03-03T01:14:58.349Z,101448.00
2019-03-03T01:15:58.851Z,101447.50
2019-03-03T01:16:59.341Z,101447.38
2019-03-03T01:17:59.827Z,101447.47
2019-03-03T01:19:00.491Z,101446.55
2019-03-03T01:19:59.978Z,101445.87
2019-03-03T01:21:01.611Z,101444.86
2019-03-03T01:22:02.266Z,101444.52
2019-03-03T01:23:03.270Z,101443.34
2019-03-03T01:24:02.261Z,101442.83
2019-03-03T01:25:03.814Z,101441.94
2019-03-03T01:26:04.290Z,101440.67
2019-03-03T01:27:04.874Z,101439.41
2019-03-03T01:28:05.449Z,101439.16
2019-03-03T01:29:06.447Z,101438.23
2019-03-03T01:30:05.925Z,101436.59
2019-03-03T01:31:07.568Z,101435.50
2019-03-03T01:32:08.221Z,101433.52
2019-03-03T01:33:08.773Z,101431.75
2019-03-03T01:33:17.340Z,101403.68
2019-03-03T01:34:18.671Z,101403.26
2019-03-03T01:35:19.142Z,101403.34
2019-03-03T01:36:19.752Z,101403.22
2019-03-03T01:37:20.230Z,101402.38
2019-03-03T01:38:20.802Z,101402.50
2019-03-03T01:39:21.494Z,101402.16
2019-03-03T01:40:22.038Z,101402.08
2019-03-03T01:41:22.664Z,101401.43
2019-03-03T01:42:23.431Z,101401.34
2019-03-03T01:43:23.967Z,101400.50
2019-03-03T01:44:24.387Z,101399.86
2019-03-03T01:45:25.143Z,101398.77
2019-03-03T01:46:25.620Z,101397.95
2019-03-03T01:47:26.091Z,101396.59
2019-03-03T01:48:26.695Z,101396.01
2019-03-03T01:49:27.324Z,101394.16
2019-03-03T01:50:27.840Z,101394.07
2019-03-03T01:51:28.281Z,101393.73
2019-03-03T01:52:28.743Z,101392.97
2019-03-03T01:53:29.140Z,101392.38
2019-03-03T01:54:29.756Z,101392.05
2019-03-03T01:55:30.213Z,101389.94
2019-03-03T01:56:30.738Z,101388.92
2019-03-03T01:57:31.381Z,101388.67
2019-03-03T01:58:32.041Z,101387.74
2019-03-03T01:59:31.245Z,101387.33
2019-03-03T02:00:31.402Z,101387.49
2019-03-03T02:01:32.863Z,101387.19
2019-03-03T02:02:33.432Z,101387.35
2019-03-03T02:03:33.973Z,101387.86
2019-03-03T02:04:34.393Z,101388.14
2019-03-03T02:05:34.981Z,101388.82
2019-03-03T02:06:35.478Z,101389.20
2019-03-03T02:07:36.050Z,101389.63
2019-03-03T02:08:36.674Z,101390.11
2019-03-03T02:09:40.203Z,101390.27
2019-03-03T02:10:36.625Z,101391.34
2019-03-03T02:11:37.321Z,101392.23
2019-03-03T02:12:39.821Z,101392.41
2019-03-03T02:13:38.051Z,101392.88
2019-03-03T02:14:39.924Z,101392.94
2019-03-03T02:15:39.671Z,101393.36
2019-03-03T02:16:41.520Z,101392.83
2019-03-03T02:17:41.444Z,101393.16
2019-03-03T02:18:42.385Z,101393.05
2019-03-03T02:19:43.860Z,101392.54
2019-03-03T02:20:44.741Z,101392.79
2019-03-03T02:21:44.020Z,101391.61
2019-03-03T02:22:44.322Z,101390.69
2019-03-03T02:23:44.968Z,101389.73
2019-03-03T02:23:53.695Z,101369.20
2019-03-03T02:24:54.113Z,101369.87
2019-03-03T02:25:55.551Z,101369.11
2019-03-03T02:26:56.243Z,101368.69
2019-03-03T02:27:57.092Z,101368.66
2019-03-03T02:28:58.088Z,101368.66
2019-03-03T02:29:57.759Z,101368.45
2019-03-03T02:30:59.430Z,101368.55
2019-03-03T02:32:00.259Z,101368.13
2019-03-03T02:32:59.847Z,101367.58
2019-03-03T02:34:01.286Z,101367.22
2019-03-03T02:35:02.017Z,101366.80
2019-03-03T02:36:01.561Z,101366.80
2019-03-03T02:37:02.549Z,101366.51
2019-03-03T02:38:03.308Z,101366.09
2019-03-03T02:39:04.789Z,101366.25
2019-03-03T02:40:04.417Z,101365.97
2019-03-03T02:41:04.551Z,101364.80
2019-03-03T02:42:04.622Z,101364.59
2019-03-03T02:43:06.264Z,101364.17
2019-03-03T02:44:07.079Z,101363.33
2019-03-03T02:45:07.110Z,101363.66
2019-03-03T02:46:08.885Z,101362.82
2019-03-03T02:47:07.932Z,101361.72
2019-03-03T02:48:08.697Z,101361.02
2019-03-03T02:49:10.300Z,101360.68
2019-03-03T02:50:09.778Z,101360.17
2019-03-03T02:51:10.475Z,101360.01
2019-03-03T02:52:10.702Z,101359.16
2019-03-03T02:53:12.526Z,101359.05
2019-03-03T02:54:12.150Z,101358.54
2019-03-03T02:55:13.595Z,101358.13
2019-03-03T02:56:14.250Z,101357.95
2019-03-03T02:57:14.020Z,101357.33
2019-03-03T02:58:14.598Z,101357.33
2019-03-03T02:59:16.455Z,101356.48
2019-03-03T03:00:17.140Z,101356.56
2019-03-03T03:01:17.675Z,101355.22
2019-03-03T03:02:18.139Z,101354.38
2019-03-03T03:03:18.857Z,101353.78
2019-03-03T03:04:18.568Z,101352.44
2019-03-03T03:05:20.300Z,101351.42
2019-03-03T03:06:19.843Z,101349.73
2019-03-03T03:07:21.460Z,101348.64
2019-03-03T03:08:21.917Z,101347.30
2019-03-03T03:09:21.664Z,101345.44
2019-03-03T03:10:22.368Z,101344.31
2019-03-03T03:11:24.302Z,101344.05
2019-03-03T03:13:28.103Z,101352.03
2019-03-03T03:14:29.151Z,101351.78
2019-03-03T03:15:29.701Z,101351.78
2019-03-03T03:16:30.357Z,101351.70
2019-03-03T03:17:30.440Z,101350.63
2019-03-03T03:18:31.304Z,101350.12
2019-03-03T03:19:30.827Z,101349.45
2019-03-03T03:20:32.299Z,101349.80
2019-03-03T03:21:33.006Z,101349.45
2019-03-03T03:22:32.588Z,101349.80
2019-03-03T03:23:33.446Z,101349.37
2019-03-03T03:24:33.716Z,101349.54
2019-03-03T03:25:35.554Z,101348.78
2019-03-03T03:26:35.853Z,101348.61
2019-03-03T03:27:36.111Z,101347.94
2019-03-03T03:28:35.701Z,101347.43
2019-03-03T03:29:37.584Z,101346.92
2019-03-03T03:30:37.141Z,101346.33
2019-03-03T03:31:38.617Z,101346.16
2019-03-03T03:32:39.160Z,101345.99
2019-03-03T03:33:38.737Z,101345.66
2019-03-03T03:34:39.533Z,101345.02
2019-03-03T03:35:41.167Z,101344.42
2019-03-03T03:36:40.907Z,101341.84
2019-03-03T03:37:42.342Z,101340.38
2019-03-03T03:38:42.951Z,101339.70
2019-03-03T03:39:42.318Z,101338.35
2019-03-03T03:40:44.063Z,101336.44
2019-03-03T03:41:44.933Z,101335.77
2019-03-03T03:42:45.472Z,101334.80
2019-03-03T03:43:45.943Z,101333.62
2019-03-03T03:44:46.504Z,101332.39
2019-03-03T03:45:47.017Z,101331.89
2019-03-03T03:46:47.684Z,101330.88
2019-03-03T03:47:47.368Z,101330.03
2019-03-03T03:48:49.992Z,101329.27
2019-03-03T03:49:47.999Z,101328.00
2019-03-03T03:50:49.666Z,101327.58
2019-03-03T03:51:50.158Z,101326.69
2019-03-03T03:52:50.668Z,101325.84
2019-03-03T03:53:51.650Z,101325.17
2019-03-03T03:54:51.368Z,101325.09
2019-03-03T03:55:52.107Z,101324.41
2019-03-03T03:56:53.676Z,101323.14
2019-03-03T03:57:54.477Z,101322.22
2019-03-03T03:58:55.137Z,101321.37
2019-03-03T03:59:55.685Z,101320.02
2019-03-03T04:00:56.491Z,101318.28
2019-03-03T04:01:56.225Z,101317.66
2019-03-03T04:02:56.935Z,101316.39
2019-03-03T04:03:58.090Z,101315.30
2019-03-03T04:04:58.900Z,101313.86
2019-03-03T04:06:08.017Z,101285.66
2019-03-03T04:07:09.538Z,101286.23
2019-03-03T04:08:10.106Z,101287.17
2019-03-03T04:09:10.280Z,101286.33
2019-03-03T04:10:11.122Z,101286.49
2019-03-03T04:11:10.241Z,101286.33
2019-03-03T04:12:11.893Z,101287.25
2019-03-03T04:13:11.730Z,101286.41
2019-03-03T04:14:13.395Z,101286.23
2019-03-03T04:15:14.134Z,101286.62
2019-03-03T04:16:13.809Z,101285.91
2019-03-03T04:17:14.240Z,101284.81
2019-03-03T04:18:15.629Z,101283.80
2019-03-03T04:19:16.181Z,101283.20
2019-03-03T04:20:15.552Z,101282.87
2019-03-03T04:21:17.951Z,101281.94
2019-03-03T04:22:17.298Z,101281.05
2019-03-03T04:23:17.599Z,101280.79
2019-03-03T04:24:17.996Z,101280.20
2019-03-03T04:25:18.375Z,101280.31
2019-03-03T04:26:18.931Z,101279.56
2019-03-03T04:27:19.427Z,101279.05
2019-03-03T04:28:19.992Z,101278.97
2019-03-03T04:29:20.832Z,101279.36
2019-03-03T04:30:21.291Z,101279.61
2019-03-03T04:31:21.756Z,101280.03
2019-03-03T04:32:22.413Z,101280.03
2019-03-03T04:33:22.854Z,101279.58
2019-03-03T04:34:23.380Z,101279.24
2019-03-03T04:35:23.956Z,101278.91
2019-03-03T04:36:23.506Z,101278.65
2019-03-03T04:37:25.313Z,101278.31
2019-03-03T04:38:25.755Z,101277.98
2019-03-03T04:39:26.177Z,101277.47
2019-03-03T04:40:26.652Z,101276.88
2019-03-03T04:41:27.192Z,101276.71
2019-03-03T04:42:27.622Z,101275.81
2019-03-03T04:43:27.998Z,101275.48
2019-03-03T04:44:28.470Z,101274.66
2019-03-03T04:45:27.900Z,101274.25
2019-03-03T04:46:29.532Z,101273.66
2019-03-03T04:47:30.242Z,101273.44
2019-03-03T04:48:30.871Z,101273.34
2019-03-03T04:49:31.771Z,101272.59
2019-03-03T04:50:32.315Z,101271.95
2019-03-03T04:51:32.810Z,101271.95
2019-03-03T04:52:33.540Z,101271.52
2019-03-03T04:53:34.338Z,101271.11
2019-03-03T04:53:42.867Z,101266.65
2019-03-03T04:54:44.585Z,101266.39
2019-03-03T04:55:45.288Z,101266.56
2019-03-03T04:56:45.796Z,101266.31
2019-03-03T04:57:46.249Z,101265.92
2019-03-03T04:58:46.855Z,101265.50
2019-03-03T04:59:46.592Z,101264.99
2019-03-03T05:00:48.106Z,101264.41
2019-03-03T05:01:48.818Z,101263.81
2019-03-03T05:02:49.337Z,101262.58
2019-03-03T05:03:50.165Z,101262.41
2019-03-03T05:04:50.828Z,101262.08
2019-03-03T05:05:51.426Z,101261.56
2019-03-03T05:06:51.973Z,101261.23
2019-03-03T05:07:52.894Z,101261.11
2019-03-03T05:08:53.286Z,101259.52
2019-03-03T05:09:53.702Z,101258.67
2019-03-03T05:10:54.099Z,101257.99
2019-03-03T05:11:54.564Z,101257.66
2019-03-03T05:12:55.227Z,101257.31
2019-03-03T05:13:55.734Z,101256.30
2019-03-03T05:14:56.141Z,101255.55
2019-03-03T05:15:56.657Z,101255.04
2019-03-03T05:16:57.213Z,101254.53
2019-03-03T05:17:57.746Z,101253.86
2019-03-03T05:18:58.343Z,101253.19
2019-03-03T05:19:58.836Z,101252.68
2019-03-03T05:20:59.315Z,101251.67
2019-03-03T05:21:59.927Z,101250.77
2019-03-03T05:23:00.801Z,101249.98
2019-03-03T05:24:01.487Z,101248.62
2019-03-03T05:25:04.829Z,101247.95
2019-03-03T05:26:01.104Z,101246.78
2019-03-03T05:27:02.631Z,101245.26
2019-03-03T05:28:03.101Z,101244.41
2019-03-03T05:29:03.668Z,101243.18
2019-03-03T05:30:03.014Z,101242.08
2019-03-03T05:31:04.703Z,101241.16
2019-03-03T05:32:05.244Z,101240.09
2019-03-03T05:33:05.797Z,101238.83
2019-03-03T05:34:06.237Z,101237.48
2019-03-03T05:35:06.815Z,101236.80
2019-03-03T05:36:07.459Z,101236.13
2019-03-03T05:37:08.248Z,101235.23
2019-03-03T05:38:08.768Z,101235.23
2019-03-03T05:38:17.298Z,101220.94
2019-03-03T05:39:18.773Z,101220.85
2019-03-03T05:40:19.358Z,101220.59
2019-03-03T05:41:19.937Z,101221.11
2019-03-03T05:42:20.436Z,101221.27
2019-03-03T05:43:21.121Z,101221.78
2019-03-03T05:44:21.573Z,101221.61
2019-03-03T05:45:22.059Z,101221.44
2019-03-03T05:46:22.884Z,101221.05
2019-03-03T05:47:23.509Z,101220.13
2019-03-03T05:48:23.929Z,101219.62
2019-03-03T05:49:24.470Z,101219.11
2019-03-03T05:50:25.099Z,101217.84
2019-03-03T05:51:25.625Z,101217.00
2019-03-03T05:52:26.120Z,101215.99
2019-03-03T05:53:26.673Z,101214.73
2019-03-03T05:54:27.157Z,101213.66
2019-03-03T05:55:27.753Z,101212.39
2019-03-03T05:56:28.341Z,101211.98
2019-03-03T05:57:28.976Z,101211.59
2019-03-03T05:58:29.729Z,101210.83
2019-03-03T05:59:30.441Z,101211.17
2019-03-03T06:00:30.904Z,101210.58
2019-03-03T06:01:31.525Z,101210.91
2019-03-03T06:02:32.088Z,101211.00
2019-03-03T06:03:32.663Z,101211.25
2019-03-03T06:04:33.159Z,101211.25
2019-03-03T06:05:33.724Z,101210.16
2019-03-03T06:06:34.239Z,101209.91
2019-03-03T06:07:34.702Z,101209.14
2019-03-03T06:08:34.138Z,101208.16
2019-03-03T06:09:35.629Z,101207.06
2019-03-03T06:10:36.130Z,101206.31
2019-03-03T06:11:36.751Z,101204.73
2019-03-03T06:12:37.257Z,101203.14
2019-03-03T06:13:37.835Z,101201.88
2019-03-03T06:14:38.233Z,101200.52
2019-03-03T06:15:38.706Z,101199.59
2019-03-03T06:16:39.228Z,101198.41
2019-03-03T06:17:39.724Z,101197.99
2019-03-03T06:18:40.123Z,101196.64
2019-03-03T06:19:40.702Z,101195.17
2019-03-03T06:20:41.163Z,101194.00
2019-03-03T06:21:41.753Z,101192.90
2019-03-03T06:21:50.294Z,101185.68
2019-03-03T06:22:51.678Z,101185.09
2019-03-03T06:23:52.196Z,101185.26
2019-03-03T06:24:52.729Z,101185.34
2019-03-03T06:25:53.247Z,101184.62
2019-03-03T06:26:53.788Z,101184.62
2019-03-03T06:27:54.579Z,101183.44
2019-03-03T06:28:55.097Z,101183.66
2019-03-03T06:29:55.566Z,101183.09
2019-03-03T06:30:56.207Z,101183.57
2019-03-03T06:31:56.867Z,101184.08
2019-03-03T06:32:57.617Z,101185.09
2019-03-03T06:33:58.093Z,101185.59
2019-03-03T06:34:58.998Z,101185.68
2019-03-03T06:35:59.684Z,101186.35
2019-03-03T06:37:00.349Z,101188.30
2019-03-03T06:38:00.835Z,101188.63
2019-03-03T06:39:01.274Z,101189.05
2019-03-03T06:40:01.974Z,101189.73
2019-03-03T06:41:02.457Z,101189.64
2019-03-03T06:42:02.957Z,101190.31
2019-03-03T06:43:03.478Z,101191.16
2019-03-03T06:44:04.115Z,101191.50
2019-03-03T06:45:04.990Z,101191.75
2019-03-03T06:46:05.467Z,101191.75
2019-03-03T06:47:06.245Z,101192.17
2019-03-03T06:48:06.693Z,101192.77
2019-03-03T06:49:07.335Z,101192.94
2019-03-03T06:50:07.787Z,101191.92
2019-03-03T06:51:08.262Z,101192.34
2019-03-03T06:52:08.870Z,101191.92
2019-03-03T06:53:10.744Z,101191.42
2019-03-03T06:54:10.254Z,101191.25
2019-03-03T06:55:11.226Z,101190.57
2019-03-03T06:56:10.574Z,101189.31
2019-03-03T06:57:44.603Z,101188.65
2019-03-03T06:58:52.635Z,101188.98
2019-03-03T06:59:46.450Z,101188.65
2019-03-03T07:00:47.055Z,101188.65
2019-03-03T07:01:47.641Z,101188.40
2019-03-03T07:02:48.134Z,101187.84
2019-03-03T07:03:48.672Z,101187.50
2019-03-03T07:04:49.130Z,101186.54
2019-03-03T07:05:49.422Z,101186.88
2019-03-03T07:06:49.881Z,101186.70
2019-03-03T07:07:50.317Z,101186.66
2019-03-03T07:08:50.490Z,101186.16
2019-03-03T07:09:50.027Z,101185.31
2019-03-03T07:10:51.493Z,101186.29
2019-03-03T07:11:51.946Z,101185.53
2019-03-03T07:12:52.813Z,101185.27
2019-03-03T07:13:54.662Z,101186.08
2019-03-03T07:14:53.205Z,101185.66
2019-03-03T07:15:53.747Z,101185.71
2019-03-03T07:16:54.248Z,101186.47
2019-03-03T07:17:55.688Z,101186.73
2019-03-03T07:18:56.478Z,101187.57
2019-03-03T07:19:56.838Z,101187.09
2019-03-03T07:20:57.605Z,101187.02
2019-03-03T07:21:58.058Z,101187.80
2019-03-03T07:22:59.049Z,101187.47
2019-03-03T07:23:59.746Z,101184.69
2019-03-03T07:25:00.316Z,101185.02
2019-03-03T07:26:00.810Z,101185.02
2019-03-03T07:27:01.993Z,101185.70
2019-03-03T07:28:00.300Z,101186.20
2019-03-03T07:29:02.005Z,101186.70
2019-03-03T07:30:02.670Z,101186.96
2019-03-03T07:31:03.497Z,101188.19
2019-03-03T07:32:04.090Z,101187.86
2019-03-03T07:33:04.624Z,101189.37
2019-03-03T07:34:05.154Z,101188.08
2019-03-03T07:35:05.858Z,101189.17
2019-03-03T07:36:06.748Z,101189.34
2019-03-03T07:37:08.284Z,101190.35
2019-03-03T07:38:07.793Z,101190.57
2019-03-03T07:39:08.216Z,101190.48
2019-03-03T07:40:09.182Z,101190.03
2019-03-03T07:41:09.663Z,101187.50
2019-03-03T07:42:10.139Z,101187.47
2019-03-03T07:43:10.577Z,101187.97
2019-03-03T07:44:11.061Z,101188.03
2019-03-03T07:44:19.598Z,101156.45
2019-03-03T07:45:20.992Z,101155.70
2019-03-03T07:46:21.704Z,101157.13
2019-03-03T07:47:22.255Z,101158.06
2019-03-03T07:48:22.667Z,101158.91
2019-03-03T07:49:23.295Z,101160.51
2019-03-03T07:50:23.705Z,101160.59
2019-03-03T07:51:24.085Z,101160.51
2019-03-03T07:52:24.524Z,101161.31
2019-03-03T07:53:25.026Z,101161.70
2019-03-03T07:54:25.927Z,101161.75
2019-03-03T07:55:26.434Z,101162.52
2019-03-03T07:56:26.829Z,101161.80
2019-03-03T07:57:27.267Z,101161.60
2019-03-03T07:58:27.767Z,101161.14
2019-03-03T07:59:28.197Z,101160.86
2019-03-03T08:00:28.620Z,101160.66
2019-03-03T08:01:29.103Z,101160.33
2019-03-03T08:02:29.653Z,101159.25
2019-03-03T08:03:30.104Z,101156.39
2019-03-03T08:04:30.660Z,101155.31
2019-03-03T08:05:31.148Z,101154.11
2019-03-03T08:06:32.020Z,101153.24
2019-03-03T08:07:32.944Z,101152.75
2019-03-03T08:08:33.484Z,101151.92
2019-03-03T08:09:34.029Z,101151.30
2019-03-03T08:10:34.914Z,101151.11
2019-03-03T08:11:35.421Z,101148.34
2019-03-03T08:12:36.370Z,101146.19
2019-03-03T08:13:35.977Z,101145.95
2019-03-03T08:14:37.791Z,101146.05
2019-03-03T08:15:38.243Z,101145.51
2019-03-03T08:16:38.911Z,101144.59
2019-03-03T08:17:39.476Z,101143.70
2019-03-03T08:18:40.005Z,101141.70
2019-03-03T08:19:40.219Z,101141.16
2019-03-03T08:20:40.784Z,101141.80
2019-03-03T08:21:41.504Z,101142.14
2019-03-03T08:22:43.453Z,101137.89
2019-03-03T08:23:42.950Z,101138.27
2019-03-03T08:24:43.436Z,101139.20
2019-03-03T08:25:43.785Z,101139.63
2019-03-03T08:26:44.185Z,101138.53
2019-03-03T08:26:53.237Z,101127.73
2019-03-03T08:27:54.721Z,101127.98
2019-03-03T08:28:54.105Z,101128.83
2019-03-03T08:29:55.618Z,101129.38
2019-03-03T08:30:56.159Z,101129.97
2019-03-03T08:31:56.996Z,101129.75
2019-03-03T08:32:57.601Z,101128.23
2019-03-03T08:33:58.177Z,101128.44
2019-03-03T08:34:58.725Z,101128.81
2019-03-03T08:35:59.242Z,101128.81
2019-03-03T08:37:00.331Z,101128.39
2019-03-03T08:37:59.353Z,101128.77
2019-03-03T08:39:01.004Z,101128.84
2019-03-03T08:40:01.521Z,101128.94
2019-03-03T08:41:02.201Z,101128.46
2019-03-03T08:42:02.674Z,101127.66
2019-03-03T08:43:04.185Z,101127.41
2019-03-03T08:44:02.791Z,101128.50
2019-03-03T08:45:04.622Z,101128.92
2019-03-03T08:46:05.135Z,101128.67
2019-03-03T08:47:05.589Z,101129.09
2019-03-03T08:48:06.078Z,101128.84
2019-03-03T08:49:06.609Z,101129.00
2019-03-03T08:50:07.127Z,101129.39
2019-03-03T08:51:07.612Z,101130.48
2019-03-03T08:52:08.045Z,101129.95
2019-03-03T08:53:08.533Z,101130.70
2019-03-03T08:54:09.031Z,101132.14
2019-03-03T08:55:08.673Z,101132.61
2019-03-03T08:56:10.176Z,101133.38
2019-03-03T08:57:16.602Z,101132.69
2019-03-03T08:58:10.600Z,101134.18
2019-03-03T08:59:11.523Z,101134.23
2019-03-03T09:00:11.946Z,101134.73
2019-03-03T09:01:12.300Z,101135.20
2019-03-03T09:02:12.805Z,101135.42
2019-03-03T09:03:13.263Z,101136.17
2019-03-03T09:04:13.780Z,101136.98
2019-03-03T09:05:14.304Z,101136.64
2019-03-03T09:06:14.846Z,101136.39
2019-03-03T09:07:15.699Z,101136.10
2019-03-03T09:08:16.226Z,101135.50
2019-03-03T09:09:16.727Z,101135.98
2019-03-03T09:10:25.229Z,101136.36
2019-03-03T09:11:17.136Z,101136.53
2019-03-03T09:12:18.579Z,101136.66
2019-03-03T09:12:28.168Z,101132.52
2019-03-03T09:13:28.761Z,101132.94
2019-03-03T09:14:29.343Z,101133.36
2019-03-03T09:15:29.976Z,101133.91
2019-03-03T09:16:30.610Z,101135.09
2019-03-03T09:17:31.363Z,101135.17
2019-03-03T09:18:32.200Z,101135.51
2019-03-03T09:19:31.296Z,101135.59
2019-03-03T09:20:32.826Z,101136.73
2019-03-03T09:21:33.294Z,101137.06
2019-03-03T09:22:33.988Z,101136.98
2019-03-03T09:23:34.529Z,101137.61
2019-03-03T09:24:35.011Z,101137.52
2019-03-03T09:25:35.919Z,101137.78
2019-03-03T09:26:36.411Z,101137.64
2019-03-03T09:27:36.925Z,101138.41
2019-03-03T09:28:37.704Z,101138.23
2019-03-03T09:29:37.349Z,101136.47
2019-03-03T09:30:39.113Z,101135.11
2019-03-03T09:31:39.113Z,101136.05
2019-03-03T09:32:39.883Z,101136.05
2019-03-03T09:33:40.375Z,101136.26
2019-03-03T09:34:40.922Z,101136.30
2019-03-03T09:35:41.404Z,101137.45
2019-03-03T09:36:41.865Z,101137.59
2019-03-03T09:37:42.360Z,101136.95
2019-03-03T09:38:43.071Z,101137.38
2019-03-03T09:39:43.712Z,101136.58
2019-03-03T09:40:44.202Z,101136.28
2019-03-03T09:41:44.553Z,101135.75
2019-03-03T09:42:44.931Z,101135.48
2019-03-03T09:43:45.466Z,101136.38
2019-03-03T09:44:45.045Z,101136.30
2019-03-03T09:45:46.510Z,101137.36
2019-03-03T09:46:47.003Z,101138.96
2019-03-03T09:47:47.636Z,101140.23
2019-03-03T09:48:48.041Z,101141.41
2019-03-03T09:49:48.714Z,101142.51
2019-03-03T09:50:49.265Z,101143.69
2019-03-03T09:51:49.868Z,101145.37
2019-03-03T09:52:50.670Z,101146.81
2019-03-03T09:53:51.184Z,101147.27
2019-03-03T09:54:51.300Z,101149.30
2019-03-03T09:55:51.355Z,101150.52
2019-03-03T09:56:52.113Z,101151.87
2019-03-03T09:57:52.688Z,101153.56
2019-03-03T09:58:01.213Z,101179.44
2019-03-03T09:59:02.434Z,101179.02
2019-03-03T10:00:02.930Z,101179.13
2019-03-03T10:01:03.378Z,101178.96
2019-03-03T10:02:04.082Z,101179.55
2019-03-03T10:03:04.644Z,101180.31
2019-03-03T10:04:05.151Z,101181.11
2019-03-03T10:05:05.629Z,101181.70
2019-03-03T10:06:06.045Z,101182.55
2019-03-03T10:07:06.780Z,101180.89
2019-03-03T10:08:06.098Z,101181.77
2019-03-03T10:09:07.561Z,101182.23
2019-03-03T10:10:08.162Z,101181.84
2019-03-03T10:11:08.984Z,101182.36
2019-03-03T10:12:11.020Z,101182.64
2019-03-03T10:13:08.768Z,101182.94
2019-03-03T10:14:09.457Z,101182.69
2019-03-03T10:15:10.688Z,101183.48
2019-03-03T10:16:11.192Z,101183.17
2019-03-03T10:17:11.687Z,101183.77
2019-03-03T10:18:12.148Z,101185.29
2019-03-03T10:19:13.043Z,101185.80
2019-03-03T10:20:13.809Z,101186.22
2019-03-03T10:21:13.718Z,101186.59
2019-03-03T10:22:14.808Z,101187.19
2019-03-03T10:23:15.276Z,101188.70
2019-03-03T10:24:15.844Z,101188.88
2019-03-03T10:25:16.585Z,101189.47
2019-03-03T10:26:15.694Z,101190.52
2019-03-03T10:27:16.258Z,101190.43
2019-03-03T10:28:17.145Z,101189.84
2019-03-03T10:29:17.493Z,101190.69
2019-03-03T10:30:17.657Z,101191.10
2019-03-03T10:31:18.482Z,101191.61
2019-03-03T10:32:18.850Z,101191.44
2019-03-03T10:33:18.953Z,101192.03
2019-03-03T10:34:19.043Z,101192.45
2019-03-03T10:35:20.009Z,101192.50
2019-03-03T10:36:20.307Z,101192.34
2019-03-03T10:37:20.438Z,101192.67
2019-03-03T10:38:21.225Z,101193.18
2019-03-03T10:39:21.743Z,101192.84
2019-03-03T10:40:22.391Z,101192.92
2019-03-03T10:41:22.952Z,101192.80
2019-03-03T10:42:28.011Z,101192.94
2019-03-03T10:43:32.869Z,101192.59
2019-03-03T10:44:25.349Z,101192.22
2019-03-03T10:45:25.806Z,101191.80
2019-03-03T10:46:26.292Z,101190.92
2019-03-03T10:47:26.739Z,101190.41
2019-03-03T10:48:27.177Z,101189.70
2019-03-03T10:49:27.800Z,101188.44
2019-03-03T10:50:28.171Z,101187.17
2019-03-03T10:51:28.833Z,101185.91
2019-03-03T10:52:29.557Z,101184.59
2019-03-03T10:53:30.525Z,101184.43
2019-03-03T10:54:30.936Z,101183.89
2019-03-03T10:55:31.474Z,101183.21
2019-03-03T10:56:32.087Z,101182.63
2019-03-03T10:57:32.644Z,101182.20
2019-03-03T10:58:33.287Z,101181.91
2019-03-03T10:59:33.952Z,101181.48
2019-03-03T11:00:34.815Z,101181.62
2019-03-03T11:01:35.453Z,101180.09
2019-03-03T11:01:44.033Z,101168.87
2019-03-03T11:02:44.145Z,101168.28
2019-03-03T11:03:45.622Z,101168.19
2019-03-03T11:04:46.182Z,101167.69
2019-03-03T11:06:27.751Z,101151.70
2019-03-03T11:07:27.280Z,101151.86
2019-03-03T11:08:28.017Z,101151.78
2019-03-03T11:09:29.546Z,101151.27
2019-03-03T11:10:28.949Z,101151.23
2019-03-03T11:11:29.436Z,101151.23
2019-03-03T11:12:30.364Z,101150.61
2019-03-03T11:13:30.149Z,101149.77
2019-03-03T11:14:30.694Z,101149.34
2019-03-03T11:15:31.703Z,101148.16
2019-03-03T11:16:32.636Z,101147.23
2019-03-03T11:17:33.257Z,101145.54
2019-03-03T11:19:05.683Z,101124.64
2019-03-03T11:20:09.413Z,101124.56
2019-03-03T11:21:38.142Z,101122.99
2019-03-03T11:22:39.232Z,101122.82
2019-03-03T11:23:40.010Z,101122.57
2019-03-03T11:25:16.579Z,101117.60